Coles Point, Australia
Current Conditions -  °F | °C
As of 5:00 PM on Sunday 26 Oct 2014 (Local Time) from YWHA Reporting Station
Clear Clear  
Wind Chill: 95°   Ceiling: Unl
Heat Index: 95°   Visibility: 6mi
Dew Point: 45°   Wind: 20mph
Humidity: 18%   Direction: 340°NNW
Pressure: 29.65"   Gusts: NA
Location:  34.38°S, 135.37°E
Report Text: YWHA 260700Z AUTO 34017KT 9999 // NCD 35/07 Q1004
Loading
Personal Weather Stations






























Interactive Weather Map
Tropical Storm Tracking
New forecast layout! Learn more

10-Day Weather Forecast

Advertisements
Track Severe Weather on mobile